createdAt,value
2022-10-18T00:00:55.294Z,25.92
2022-10-18T00:05:58.231Z,27.35
2022-10-18T00:11:00.142Z,27.98
2022-10-18T00:16:04.554Z,29.80
2022-10-18T00:21:10.648Z,28.20
2022-10-18T00:26:17.064Z,25.77
2022-10-18T00:31:21.836Z,29.48
2022-10-18T00:36:24.960Z,26.23
2022-10-18T00:41:29.632Z,22.92
2022-10-18T00:46:36.491Z,24.08
2022-10-18T00:51:44.226Z,25.17
2022-10-18T00:56:46.480Z,25.30
2022-10-18T01:01:48.162Z,24.25
2022-10-18T01:07:10.778Z,24.52
2022-10-18T01:12:43.187Z,25.90
2022-10-18T01:18:11.028Z,24.33
2022-10-18T01:23:24.803Z,21.83
2022-10-18T01:33:37.043Z,23.23
2022-10-18T01:38:41.148Z,22.50
2022-10-18T01:43:48.573Z,22.05
2022-10-18T01:48:58.931Z,34.97
2022-10-18T01:54:01.320Z,19.92
2022-10-18T01:59:41.494Z,35.30
2022-10-18T02:05:14.884Z,26.73
2022-10-18T02:10:16.720Z,23.30
2022-10-18T02:15:24.678Z,26.80
2022-10-18T02:20:42.200Z,61.63
2022-10-18T02:25:50.346Z,56.08
2022-10-18T02:31:27.882Z,61.47
2022-10-18T02:36:46.620Z,112.30
2022-10-18T02:41:52.692Z,70.45
2022-10-18T02:46:56.610Z,67.28
2022-10-18T02:51:59.342Z,48.10
2022-10-18T02:57:07.218Z,36.55
2022-10-18T03:07:32.135Z,83.87
2022-10-18T03:12:36.744Z,91.93
2022-10-18T03:17:38.960Z,52.55
2022-10-18T03:22:43.206Z,60.92
2022-10-18T03:27:48.617Z,39.80
2022-10-18T03:33:14.853Z,108.47
2022-10-18T03:38:17.966Z,83.38
2022-10-18T03:43:24.718Z,114.50
2022-10-18T03:48:33.423Z,99.40
2022-10-18T03:53:36.024Z,120.85
2022-10-18T03:58:39.153Z,31.70
2022-10-18T04:03:44.635Z,45.47
2022-10-18T04:08:47.620Z,40.60
2022-10-18T04:14:23.347Z,49.92
2022-10-18T04:19:30.414Z,57.33
2022-10-18T04:24:33.402Z,58.75
2022-10-18T04:29:47.587Z,65.93
2022-10-18T04:34:53.483Z,97.82
2022-10-18T04:39:56.353Z,59.63
2022-10-18T04:44:58.827Z,46.45
2022-10-18T04:50:04.027Z,72.72
2022-10-18T04:55:09.662Z,144.90
2022-10-18T05:00:12.368Z,111.20
2022-10-18T05:05:16.138Z,68.55
2022-10-18T05:10:32.050Z,67.20
2022-10-18T05:15:39.704Z,72.80
2022-10-18T05:20:41.645Z,89.95
2022-10-18T05:26:01.178Z,46.17
2022-10-18T05:31:09.243Z,35.00
2022-10-18T05:36:12.270Z,50.75
2022-10-18T05:41:15.084Z,42.38
2022-10-18T05:46:19.654Z,34.38
2022-10-18T05:51:21.900Z,77.15
2022-10-18T05:56:23.875Z,52.10
2022-10-18T06:01:33.660Z,82.22
2022-10-18T06:11:43.868Z,75.22
2022-10-18T06:16:45.633Z,36.25
2022-10-18T06:21:54.653Z,125.60
2022-10-18T06:26:57.982Z,44.40
2022-10-18T06:32:00.673Z,39.30
2022-10-18T06:37:03.112Z,26.65
2022-10-18T06:42:04.930Z,31.80
2022-10-18T06:47:14.152Z,24.27
2022-10-18T06:52:20.914Z,41.67
2022-10-18T06:57:22.600Z,17.92
2022-10-18T07:02:24.237Z,46.05
2022-10-18T07:07:25.998Z,35.05
2022-10-18T07:12:28.912Z,22.85
2022-10-18T07:17:32.122Z,36.53
2022-10-18T07:22:34.195Z,36.65
2022-10-18T07:27:40.539Z,41.10
2022-10-18T07:32:44.974Z,30.77
2022-10-18T07:37:46.950Z,34.15
2022-10-18T07:42:48.702Z,24.60
2022-10-18T07:47:57.564Z,27.85
2022-10-18T07:52:59.294Z,27.25
2022-10-18T07:58:01.320Z,29.80
2022-10-18T08:03:03.316Z,28.55
2022-10-18T08:08:16.401Z,37.38
2022-10-18T08:13:25.055Z,29.88
2022-10-18T08:18:28.879Z,37.15
2022-10-18T08:23:33.940Z,45.03
2022-10-18T08:28:53.737Z,43.67
2022-10-18T08:39:42.628Z,14.18
2022-10-18T08:45:37.409Z,27.35
2022-10-18T08:51:11.425Z,24.60
2022-10-18T08:56:27.791Z,14.77
2022-10-18T09:02:07.497Z,19.20
2022-10-18T09:07:41.137Z,18.15
2022-10-18T09:13:02.521Z,18.30
2022-10-18T09:18:37.563Z,15.48
2022-10-18T09:23:50.416Z,14.93
2022-10-18T09:29:36.097Z,16.73
2022-10-18T09:34:44.628Z,16.52
2022-10-18T09:40:12.180Z,15.07
2022-10-18T09:45:28.781Z,18.90
2022-10-18T09:50:42.303Z,19.90
2022-10-18T09:55:55.786Z,15.17
2022-10-18T10:00:59.469Z,19.58
2022-10-18T10:06:14.957Z,18.52
2022-10-18T10:11:45.403Z,15.85
2022-10-18T10:16:51.353Z,18.58
2022-10-18T10:22:14.540Z,17.45
2022-10-18T10:27:45.107Z,14.63
2022-10-18T10:32:58.425Z,14.07
2022-10-18T10:38:08.561Z,12.88
2022-10-18T10:43:38.198Z,14.90
2022-10-18T11:03:05.903Z,14.73
2022-10-18T11:08:47.677Z,12.57
2022-10-18T11:20:01.993Z,12.32
2022-10-18T11:25:36.708Z,11.57
2022-10-18T11:30:59.124Z,12.88
2022-10-18T11:36:16.273Z,12.55
2022-10-18T11:41:44.540Z,12.93
2022-10-18T11:47:12.269Z,11.23
2022-10-18T11:52:25.015Z,11.73
2022-10-18T11:57:38.799Z,13.15
2022-10-18T12:02:58.925Z,5.75
2022-10-18T12:08:09.873Z,8.63
2022-10-18T12:13:19.124Z,7.82
2022-10-18T12:18:25.899Z,10.93
2022-10-18T12:23:36.589Z,9.65
2022-10-18T12:28:46.140Z,9.60
2022-10-18T12:33:51.815Z,8.70
2022-10-18T12:39:09.262Z,6.40
2022-10-18T12:44:27.524Z,9.23
2022-10-18T12:49:32.248Z,9.48
2022-10-18T12:54:39.299Z,6.03
2022-10-18T12:59:42.031Z,5.43
2022-10-18T13:04:45.267Z,8.65
2022-10-18T13:10:15.406Z,4.53
2022-10-18T13:15:35.316Z,5.47
2022-10-18T13:20:36.801Z,7.65
2022-10-18T13:25:47.533Z,9.55
2022-10-18T13:30:51.849Z,6.43
2022-10-18T13:35:58.814Z,5.82
2022-10-18T13:41:02.711Z,6.32
2022-10-18T13:46:04.368Z,10.27
2022-10-18T13:51:27.353Z,8.60
2022-10-18T13:56:56.717Z,11.18
2022-10-18T14:02:15.061Z,8.07
2022-10-18T14:07:19.460Z,12.90
2022-10-18T14:12:28.635Z,9.55
2022-10-18T14:17:42.896Z,12.50
2022-10-18T14:23:11.748Z,8.27
2022-10-18T14:28:17.795Z,9.40
2022-10-18T14:33:32.584Z,13.20
2022-10-18T14:38:36.302Z,8.23
2022-10-18T14:43:37.812Z,8.93
2022-10-18T14:48:39.323Z,7.78
2022-10-18T14:53:41.867Z,7.53
2022-10-18T14:58:43.662Z,11.20
2022-10-18T15:03:46.711Z,8.75
2022-10-18T15:08:54.452Z,6.47
2022-10-18T15:13:57.778Z,6.40
2022-10-18T15:19:22.080Z,7.68
2022-10-18T15:24:26.539Z,8.90
2022-10-18T15:29:33.186Z,6.00
2022-10-18T15:34:35.678Z,8.68
2022-10-18T15:39:37.184Z,10.13
2022-10-18T15:44:51.170Z,7.75
2022-10-18T15:49:58.301Z,11.82
2022-10-18T15:55:01.279Z,9.27
2022-10-18T16:00:07.980Z,9.82
2022-10-18T16:05:20.701Z,9.20
2022-10-18T16:10:22.290Z,7.97
2022-10-18T16:15:24.076Z,11.55
2022-10-18T16:20:26.954Z,10.05
2022-10-18T16:25:28.567Z,11.73
2022-10-18T16:30:32.477Z,6.60
2022-10-18T16:35:35.646Z,11.10
2022-10-18T16:40:52.691Z,10.98
2022-10-18T16:45:54.784Z,15.40
2022-10-18T16:50:57.246Z,12.88
2022-10-18T16:56:01.065Z,6.07
2022-10-18T17:01:04.236Z,8.95
2022-10-18T17:06:29.461Z,12.43
2022-10-18T17:11:31.478Z,10.45
2022-10-18T17:16:36.711Z,15.82
2022-10-18T17:21:39.924Z,47.42
2022-10-18T17:26:41.742Z,36.55
2022-10-18T17:31:43.777Z,50.40
2022-10-18T17:36:46.658Z,22.35
2022-10-18T17:41:48.221Z,12.60
2022-10-18T17:46:50.449Z,11.45
2022-10-18T17:51:52.308Z,7.97
2022-10-18T17:56:55.238Z,13.38
2022-10-18T18:01:56.905Z,11.73
2022-10-18T18:06:59.881Z,14.77
2022-10-18T18:12:01.916Z,9.85
2022-10-18T18:17:03.825Z,18.55
2022-10-18T18:22:06.531Z,9.88
2022-10-18T18:27:08.797Z,6.15
2022-10-18T18:32:10.521Z,11.90
2022-10-18T18:37:12.212Z,10.13
2022-10-18T18:42:14.171Z,7.70
2022-10-18T18:47:16.132Z,9.35
2022-10-18T18:52:18.106Z,6.30
2022-10-18T18:57:19.704Z,9.98
2022-10-18T19:02:21.266Z,7.75
2022-10-18T19:07:23.547Z,7.68
2022-10-18T19:12:25.336Z,9.13
2022-10-18T19:17:26.905Z,12.02
2022-10-18T19:22:28.931Z,7.93
2022-10-18T19:27:31.085Z,7.63
2022-10-18T19:32:33.179Z,9.93
2022-10-18T19:37:35.079Z,8.60
2022-10-18T19:42:37.800Z,33.55
2022-10-18T19:47:41.248Z,29.13
2022-10-18T19:52:43.126Z,21.55
2022-10-18T19:57:44.617Z,17.30
2022-10-18T20:02:46.339Z,10.18
2022-10-18T20:07:48.072Z,9.23
2022-10-18T20:12:50.217Z,9.85
2022-10-18T20:17:51.835Z,12.57
2022-10-18T20:22:53.427Z,11.73
2022-10-18T20:27:55.044Z,5.90
2022-10-18T20:32:56.730Z,6.28
2022-10-18T20:37:58.378Z,3.40
2022-10-18T20:43:03.674Z,13.38
2022-10-18T20:48:05.662Z,9.52
2022-10-18T20:53:07.386Z,5.28
2022-10-18T20:58:10.943Z,12.77
2022-10-18T21:08:15.163Z,6.00
2022-10-18T21:13:17.010Z,12.00
2022-10-18T21:18:19.081Z,10.85
2022-10-18T21:23:21.255Z,4.47
2022-10-18T21:28:24.324Z,4.80
2022-10-18T21:33:26.238Z,9.57
2022-10-18T21:38:27.839Z,16.27
2022-10-18T21:43:29.438Z,10.63
2022-10-18T21:48:31.123Z,10.13
2022-10-18T21:53:33.016Z,3.40
2022-10-18T21:58:38.654Z,8.68
2022-10-18T22:03:40.429Z,2.10
2022-10-18T22:08:49.169Z,8.63
2022-10-18T22:13:52.832Z,5.82
2022-10-18T22:18:58.256Z,4.70
2022-10-18T22:24:03.078Z,12.80
2022-10-18T22:29:07.696Z,9.63
2022-10-18T22:34:18.751Z,7.82
2022-10-18T22:39:20.919Z,2.80
2022-10-18T22:44:22.688Z,10.50
2022-10-18T22:49:24.409Z,7.55
2022-10-18T22:54:26.335Z,10.82
2022-10-18T22:59:27.784Z,7.53
2022-10-18T23:04:29.305Z,5.90
2022-10-18T23:09:32.869Z,6.50
2022-10-18T23:14:34.762Z,6.85
2022-10-18T23:19:36.850Z,9.73
2022-10-18T23:24:38.469Z,7.00
2022-10-18T23:29:40.089Z,8.55
2022-10-18T23:34:42.119Z,8.55
2022-10-18T23:39:43.695Z,8.20
2022-10-18T23:44:45.386Z,6.10
2022-10-18T23:49:46.938Z,7.88
2022-10-18T23:54:48.603Z,10.77
2022-10-18T23:59:50.205Z,10.80
